createdAt,value
2019-05-07T00:01:25.102Z,6.20
2019-05-07T00:03:54.612Z,6.18
2019-05-07T00:06:27.302Z,6.13
2019-05-07T00:08:56.842Z,5.99
2019-05-07T00:11:26.335Z,5.89
2019-05-07T00:13:56.129Z,5.84
2019-05-07T00:16:27.361Z,5.81
2019-05-07T00:18:59.426Z,5.75
2019-05-07T00:21:28.860Z,5.68
2019-05-07T00:23:58.359Z,5.64
2019-05-07T00:26:27.764Z,5.64
2019-05-07T00:28:57.554Z,5.62
2019-05-07T00:31:27.076Z,5.68
2019-05-07T00:33:56.529Z,5.61
2019-05-07T00:36:32.604Z,5.59
2019-05-07T00:39:21.822Z,5.38
2019-05-07T00:41:57.620Z,5.31
2019-05-07T00:44:27.242Z,5.16
2019-05-07T00:46:56.748Z,5.08
2019-05-07T00:49:27.641Z,5.05
2019-05-07T00:51:57.124Z,5.06
2019-05-07T00:54:29.330Z,5.25
2019-05-07T00:57:03.089Z,5.24
2019-05-07T00:59:32.718Z,5.25
2019-05-07T01:02:02.411Z,5.21
2019-05-07T01:04:33.119Z,5.12
2019-05-07T01:07:02.909Z,5.03
2019-05-07T01:09:32.537Z,5.03
2019-05-07T01:12:03.138Z,5.18
2019-05-07T01:14:32.800Z,5.23
2019-05-07T01:17:02.569Z,5.26
2019-05-07T01:19:32.950Z,5.24
2019-05-07T01:22:03.226Z,5.14
2019-05-07T01:24:32.820Z,5.12
2019-05-07T01:27:02.282Z,5.14
2019-05-07T01:29:32.841Z,5.21
2019-05-07T01:32:13.169Z,5.16
2019-05-07T01:34:52.537Z,5.17
2019-05-07T01:37:23.101Z,5.21
2019-05-07T01:39:53.085Z,5.17
2019-05-07T01:42:24.773Z,5.18
2019-05-07T01:44:54.262Z,5.15
2019-05-07T01:47:23.882Z,5.20
2019-05-07T01:49:55.055Z,5.17
2019-05-07T01:52:25.623Z,5.13
2019-05-07T01:54:55.154Z,5.12
2019-05-07T01:57:24.547Z,5.04
2019-05-07T01:59:53.913Z,4.96
2019-05-07T02:02:33.223Z,4.89
2019-05-07T02:05:12.275Z,4.80
2019-05-07T02:07:47.571Z,4.81
2019-05-07T02:10:34.436Z,4.85
2019-05-07T02:13:03.784Z,4.87
2019-05-07T02:15:33.347Z,4.75
2019-05-07T02:18:02.769Z,4.66
2019-05-07T02:20:32.413Z,4.69
2019-05-07T02:23:02.789Z,4.75
2019-05-07T02:25:32.934Z,4.77
2019-05-07T02:28:02.462Z,4.75
2019-05-07T02:30:35.116Z,4.71
2019-05-07T02:33:03.933Z,4.66
2019-05-07T02:35:35.272Z,4.73
2019-05-07T02:38:13.844Z,4.76
2019-05-07T02:40:53.734Z,4.78
2019-05-07T02:43:23.107Z,4.75
2019-05-07T02:46:17.349Z,4.72
2019-05-07T02:48:43.102Z,4.85
2019-05-07T02:51:24.022Z,4.80
2019-05-07T02:54:03.599Z,4.88
2019-05-07T02:56:33.700Z,4.94
2019-05-07T02:59:04.198Z,5.00
2019-05-07T03:01:34.000Z,5.03
2019-05-07T03:04:03.836Z,5.01
2019-05-07T03:06:34.134Z,4.99
2019-05-07T03:09:04.283Z,5.03
2019-05-07T03:11:34.190Z,5.11
2019-05-07T03:14:03.937Z,5.15
2019-05-07T03:16:43.204Z,5.13
2019-05-07T03:19:04.736Z,5.15
2019-05-07T03:21:54.012Z,5.09
2019-05-07T03:24:43.518Z,5.08
2019-05-07T03:27:14.515Z,4.99
2019-05-07T03:29:47.907Z,5.01
2019-05-07T03:32:38.051Z,4.98
2019-05-07T03:35:16.309Z,4.94
2019-05-07T03:37:44.481Z,4.87
2019-05-07T03:40:14.495Z,4.92
2019-05-07T03:42:44.396Z,4.92
2019-05-07T03:45:23.985Z,4.95
2019-05-07T03:48:04.135Z,4.96
2019-05-07T03:50:33.907Z,4.98
2019-05-07T03:53:03.427Z,5.08
2019-05-07T03:55:33.367Z,5.03
2019-05-07T03:58:03.348Z,5.05
2019-05-07T04:00:33.428Z,5.08
2019-05-07T04:03:03.668Z,5.13
2019-05-07T04:05:34.254Z,5.22
2019-05-07T04:08:04.006Z,5.25
2019-05-07T04:10:33.986Z,5.26
2019-05-07T04:13:04.618Z,5.22
2019-05-07T04:15:34.333Z,5.23
2019-05-07T04:18:03.927Z,5.34
2019-05-07T04:20:33.679Z,5.37
2019-05-07T04:23:04.320Z,5.43
2019-05-07T04:25:53.030Z,5.50
2019-05-07T04:28:43.599Z,5.54
2019-05-07T04:31:14.069Z,5.57
2019-05-07T04:33:44.208Z,5.64
2019-05-07T04:36:35.139Z,5.65
2019-05-07T04:39:06.105Z,5.64
2019-05-07T04:41:35.573Z,5.72
2019-05-07T04:44:05.282Z,5.76
2019-05-07T04:46:34.671Z,5.75
2019-05-07T04:49:04.276Z,5.86
2019-05-07T04:51:48.527Z,5.88
2019-05-07T04:54:18.041Z,5.97
2019-05-07T04:56:47.579Z,6.08
2019-05-07T04:59:17.000Z,6.02
2019-05-07T05:01:53.281Z,6.04
2019-05-07T05:04:30.240Z,6.14
2019-05-07T05:06:54.008Z,6.17
2019-05-07T05:09:23.567Z,6.30
2019-05-07T05:11:53.206Z,6.35
2019-05-07T05:14:23.047Z,6.47
2019-05-07T05:16:52.679Z,6.47
2019-05-07T05:19:22.968Z,6.48
2019-05-07T05:22:12.674Z,6.60
2019-05-07T05:24:45.151Z,6.66
2019-05-07T05:27:14.652Z,6.78
2019-05-07T05:29:44.075Z,6.76
2019-05-07T05:32:13.457Z,6.83
2019-05-07T05:34:42.863Z,7.02
2019-05-07T05:37:12.383Z,7.24
2019-05-07T05:39:42.610Z,7.42
2019-05-07T05:42:33.041Z,7.58
2019-05-07T05:45:02.838Z,7.69
2019-05-07T05:47:33.016Z,7.80
2019-05-07T05:50:03.253Z,7.91
2019-05-07T05:52:46.541Z,7.99
2019-05-07T05:55:18.347Z,8.17
2019-05-07T05:58:09.657Z,8.41
2019-05-07T06:01:02.557Z,8.64
2019-05-07T06:03:53.992Z,8.81
2019-05-07T06:06:34.383Z,8.97
2019-05-07T06:09:12.492Z,9.21
2019-05-07T06:12:06.797Z,9.35
2019-05-07T06:14:45.997Z,9.38
2019-05-07T06:17:42.535Z,9.51
2019-05-07T06:20:24.754Z,9.74
2019-05-07T06:23:17.027Z,9.88
2019-05-07T06:25:47.104Z,10.06
2019-05-07T06:28:17.046Z,10.18
2019-05-07T06:30:46.536Z,10.27
2019-05-07T06:33:15.956Z,10.45
2019-05-07T06:35:45.432Z,10.52
2019-05-07T06:38:15.480Z,10.63
2019-05-07T06:41:13.105Z,10.78
2019-05-07T06:43:47.141Z,10.88
2019-05-07T06:46:16.737Z,10.89
2019-05-07T06:48:46.488Z,11.03
2019-05-07T06:51:17.552Z,11.13
2019-05-07T06:53:47.180Z,11.09
2019-05-07T06:56:16.600Z,11.07
2019-05-07T06:58:52.619Z,10.86
2019-05-07T07:01:44.344Z,10.88
2019-05-07T07:04:34.401Z,10.98
2019-05-07T07:07:30.738Z,11.20
2019-05-07T07:10:02.648Z,11.47
2019-05-07T07:12:33.235Z,11.58
2019-05-07T07:15:02.922Z,11.69
2019-05-07T07:17:32.785Z,11.82
2019-05-07T07:20:02.458Z,11.75
2019-05-07T07:22:32.137Z,11.80
2019-05-07T07:25:02.924Z,11.95
2019-05-07T07:27:32.715Z,11.74
2019-05-07T07:30:21.815Z,11.51
2019-05-07T07:32:52.017Z,11.70
2019-05-07T07:35:22.584Z,12.21
2019-05-07T07:37:53.083Z,12.33
2019-05-07T07:40:45.258Z,12.66
2019-05-07T07:43:14.603Z,12.84
2019-05-07T07:45:44.039Z,12.88
2019-05-07T07:48:13.402Z,13.01
2019-05-07T07:50:42.820Z,13.01
2019-05-07T07:53:12.929Z,12.68
2019-05-07T07:56:02.574Z,12.46
2019-05-07T07:58:41.966Z,12.34
2019-05-07T08:01:19.546Z,12.58
2019-05-07T08:03:49.078Z,12.86
2019-05-07T08:06:18.571Z,12.97
2019-05-07T08:08:48.113Z,13.18
2019-05-07T08:11:17.672Z,13.17
2019-05-07T08:13:47.163Z,13.19
2019-05-07T08:16:19.317Z,13.55
2019-05-07T08:18:49.190Z,13.68
2019-05-07T08:21:18.754Z,13.75
2019-05-07T08:23:48.132Z,13.93
2019-05-07T08:26:17.619Z,14.04
2019-05-07T08:28:47.122Z,13.82
2019-05-07T08:31:35.833Z,13.78
2019-05-07T08:34:31.988Z,13.89
2019-05-07T08:37:01.962Z,13.87
2019-05-07T08:39:32.595Z,13.75
2019-05-07T08:42:02.232Z,14.09
2019-05-07T08:44:42.956Z,14.04
2019-05-07T08:47:43.796Z,14.06
2019-05-07T08:50:13.308Z,14.13
2019-05-07T08:52:42.789Z,13.95
2019-05-07T08:55:13.493Z,13.95
2019-05-07T08:57:45.775Z,13.95
2019-05-07T09:00:15.823Z,14.03
2019-05-07T09:02:45.284Z,14.13
2019-05-07T09:05:14.978Z,13.88
2019-05-07T09:07:44.616Z,13.27
2019-05-07T09:10:14.379Z,12.77
2019-05-07T09:12:45.868Z,12.49
2019-05-07T09:15:15.308Z,12.38
2019-05-07T09:17:44.789Z,12.37
2019-05-07T09:20:14.271Z,12.56
2019-05-07T09:22:43.900Z,12.63
2019-05-07T09:25:13.747Z,12.88
2019-05-07T09:27:48.164Z,13.25
2019-05-07T09:30:42.531Z,13.58
2019-05-07T09:33:42.162Z,13.69
2019-05-07T09:36:19.752Z,13.53
2019-05-07T09:38:56.837Z,13.36
2019-05-07T09:41:29.654Z,13.33
2019-05-07T09:43:59.575Z,13.56
2019-05-07T09:46:29.056Z,13.78
2019-05-07T09:48:58.566Z,13.80
2019-05-07T09:51:27.957Z,13.98
2019-05-07T09:53:57.444Z,14.12
2019-05-07T09:56:26.958Z,14.34
2019-05-07T09:58:56.486Z,14.27
2019-05-07T10:01:25.994Z,13.94
2019-05-07T10:03:55.448Z,13.78
2019-05-07T10:06:24.973Z,14.01
2019-05-07T10:08:54.992Z,14.23
2019-05-07T10:11:34.495Z,13.96
2019-05-07T10:14:07.996Z,13.79
2019-05-07T10:16:52.291Z,13.78
2019-05-07T10:19:22.240Z,13.91
2019-05-07T10:21:52.947Z,13.99
2019-05-07T10:24:22.657Z,14.32
2019-05-07T10:26:53.204Z,14.30
2019-05-07T10:29:22.911Z,14.74
2019-05-07T10:31:52.845Z,15.47
2019-05-07T10:34:23.035Z,16.14
2019-05-07T10:36:52.483Z,16.69
2019-05-07T10:39:22.101Z,17.11
2019-05-07T10:41:51.475Z,17.13
2019-05-07T10:44:23.474Z,17.06
2019-05-07T10:47:12.102Z,17.34
2019-05-07T10:49:46.045Z,17.84
2019-05-07T10:52:15.550Z,17.89
2019-05-07T10:54:56.785Z,18.23
2019-05-07T10:57:16.257Z,18.64
2019-05-07T10:59:45.634Z,18.63
2019-05-07T11:02:23.067Z,18.28
2019-05-07T11:04:53.247Z,18.01
2019-05-07T11:07:22.647Z,17.94
2019-05-07T11:09:52.482Z,17.30
2019-05-07T11:12:22.943Z,17.38
2019-05-07T11:14:52.524Z,17.49
2019-05-07T11:17:39.451Z,17.57
2019-05-07T11:20:12.041Z,17.60
2019-05-07T11:22:42.877Z,17.13
2019-05-07T11:25:12.535Z,16.78
2019-05-07T11:27:42.227Z,17.03
2019-05-07T11:30:12.439Z,17.64
2019-05-07T11:32:42.927Z,17.40
2019-05-07T11:35:14.722Z,17.41
2019-05-07T11:37:44.382Z,17.72
2019-05-07T11:40:14.450Z,18.11
2019-05-07T11:43:06.034Z,18.35
2019-05-07T11:45:54.012Z,18.68
2019-05-07T11:48:22.870Z,18.72
2019-05-07T11:51:26.814Z,18.50
2019-05-07T11:54:12.378Z,18.04
2019-05-07T11:56:42.366Z,17.54
2019-05-07T11:59:13.373Z,18.01
2019-05-07T12:01:47.902Z,18.06
2019-05-07T12:04:17.761Z,18.09
2019-05-07T12:06:47.110Z,18.21
2019-05-07T12:09:16.529Z,18.66
2019-05-07T12:11:45.938Z,18.44
2019-05-07T12:14:27.982Z,18.08
2019-05-07T12:16:46.690Z,18.30
2019-05-07T12:19:16.606Z,19.10
2019-05-07T12:21:46.462Z,19.20
2019-05-07T12:24:16.478Z,18.63
2019-05-07T12:26:46.466Z,18.01
2019-05-07T12:29:15.894Z,17.44
2019-05-07T12:32:16.271Z,17.72
2019-05-07T12:34:48.919Z,18.29
2019-05-07T12:37:18.310Z,18.49
2019-05-07T12:39:47.813Z,19.06
2019-05-07T12:42:17.255Z,19.45
2019-05-07T12:44:46.713Z,19.68
2019-05-07T12:47:16.211Z,20.24
2019-05-07T12:49:45.654Z,20.15
2019-05-07T12:52:23.375Z,20.13
2019-05-07T12:55:11.920Z,20.28
2019-05-07T12:57:42.063Z,19.88
2019-05-07T13:00:29.577Z,18.99
2019-05-07T13:03:26.999Z,18.32
2019-05-07T13:05:56.497Z,17.52
2019-05-07T13:08:26.011Z,16.93
2019-05-07T13:10:55.418Z,16.27
2019-05-07T13:13:28.069Z,15.85
2019-05-07T13:15:57.598Z,15.66
2019-05-07T13:18:26.982Z,15.19
2019-05-07T13:20:56.417Z,15.00
2019-05-07T13:23:25.854Z,14.87
2019-05-07T13:25:55.271Z,14.53
2019-05-07T13:28:24.767Z,14.02
2019-05-07T13:30:54.221Z,14.03
2019-05-07T13:33:23.956Z,14.47
2019-05-07T13:35:53.491Z,15.97
2019-05-07T13:38:48.188Z,19.03
2019-05-07T13:41:39.679Z,20.97
2019-05-07T13:44:34.188Z,22.09
2019-05-07T13:47:21.930Z,22.62
2019-05-07T13:49:53.879Z,21.73
2019-05-07T13:52:24.502Z,20.52
2019-05-07T13:54:54.381Z,19.58
2019-05-07T13:57:24.226Z,18.88
2019-05-07T13:59:54.534Z,18.20
2019-05-07T14:02:26.191Z,17.68
2019-05-07T14:04:55.697Z,17.57
2019-05-07T14:07:26.557Z,17.50
2019-05-07T14:09:55.972Z,17.33
2019-05-07T14:12:25.557Z,17.29
2019-05-07T14:14:55.128Z,16.89
2019-05-07T14:17:24.643Z,16.68
2019-05-07T14:19:54.108Z,16.44
2019-05-07T14:22:23.887Z,16.37
2019-05-07T14:24:53.321Z,16.27
2019-05-07T14:27:22.800Z,16.61
2019-05-07T14:29:52.339Z,16.66
2019-05-07T14:32:31.040Z,16.60
2019-05-07T14:35:20.061Z,16.86
2019-05-07T14:37:53.322Z,16.91
2019-05-07T14:40:25.216Z,16.74
2019-05-07T14:43:03.386Z,16.36
2019-05-07T14:45:32.790Z,15.95
2019-05-07T14:48:03.003Z,15.60
2019-05-07T14:50:33.023Z,15.54
2019-05-07T14:53:02.905Z,15.28
2019-05-07T14:55:32.611Z,15.44
2019-05-07T14:58:02.057Z,15.70
2019-05-07T15:00:31.431Z,15.69
2019-05-07T15:03:01.937Z,15.63
2019-05-07T15:05:31.496Z,15.57
2019-05-07T15:08:10.770Z,15.37
2019-05-07T15:10:32.871Z,15.08
2019-05-07T15:13:02.475Z,14.75
2019-05-07T15:15:32.221Z,14.57
2019-05-07T15:18:15.725Z,14.54
2019-05-07T15:20:47.552Z,14.81
2019-05-07T15:23:22.563Z,15.18
2019-05-07T15:25:52.441Z,15.68
2019-05-07T15:28:22.857Z,16.33
2019-05-07T15:31:02.938Z,16.84
2019-05-07T15:33:32.584Z,17.07
2019-05-07T15:36:02.996Z,16.92
2019-05-07T15:38:32.801Z,16.70
2019-05-07T15:41:02.348Z,16.56
2019-05-07T15:43:37.641Z,16.41
2019-05-07T15:46:07.019Z,16.06
2019-05-07T15:48:36.589Z,15.86
2019-05-07T15:51:06.440Z,15.73
2019-05-07T15:53:42.701Z,15.61
2019-05-07T15:56:12.530Z,15.34
2019-05-07T15:58:42.689Z,15.16
2019-05-07T16:01:12.823Z,15.11
2019-05-07T16:03:44.359Z,14.94
2019-05-07T16:06:13.750Z,14.80
2019-05-07T16:08:50.487Z,14.82
2019-05-07T16:11:23.181Z,14.82
2019-05-07T16:14:12.422Z,14.89
2019-05-07T16:16:45.319Z,15.03
2019-05-07T16:19:34.255Z,15.16
2019-05-07T16:22:08.130Z,15.45
2019-05-07T16:24:37.690Z,15.80
2019-05-07T16:27:07.087Z,16.05
2019-05-07T16:29:36.586Z,16.07
2019-05-07T16:32:07.221Z,16.10
2019-05-07T16:34:36.695Z,16.30
2019-05-07T16:37:07.583Z,17.40
2019-05-07T16:39:37.342Z,18.62
2019-05-07T16:42:08.382Z,19.91
2019-05-07T16:44:38.046Z,20.46
2019-05-07T16:47:07.526Z,20.96
2019-05-07T16:49:37.015Z,21.21
2019-05-07T16:52:06.376Z,21.31
2019-05-07T16:54:35.950Z,21.67
2019-05-07T16:57:33.723Z,21.75
2019-05-07T17:00:04.663Z,21.52
2019-05-07T17:02:38.646Z,21.39
2019-05-07T17:05:12.439Z,21.45
2019-05-07T17:07:49.078Z,21.07
2019-05-07T17:10:19.292Z,20.68
2019-05-07T17:12:48.660Z,20.36
2019-05-07T17:15:18.242Z,20.15
2019-05-07T17:17:52.116Z,20.10
2019-05-07T17:20:22.039Z,19.81
2019-05-07T17:22:52.760Z,19.15
2019-05-07T17:25:37.582Z,18.70
2019-05-07T17:28:07.116Z,18.19
2019-05-07T17:30:37.711Z,17.62
2019-05-07T17:33:07.898Z,17.26
2019-05-07T17:35:37.475Z,17.03
2019-05-07T17:38:09.779Z,16.68
2019-05-07T17:40:38.310Z,16.36
2019-05-07T17:43:15.109Z,15.97
2019-05-07T17:45:45.604Z,15.62
2019-05-07T17:48:14.989Z,15.41
2019-05-07T17:51:06.314Z,15.21
2019-05-07T17:53:35.747Z,14.83
2019-05-07T17:56:05.181Z,14.40
2019-05-07T17:58:34.569Z,14.16
2019-05-07T18:01:04.831Z,13.86
2019-05-07T18:03:35.786Z,13.51
2019-05-07T18:06:05.970Z,13.26
2019-05-07T18:08:35.421Z,12.84
2019-05-07T18:11:17.385Z,12.38
2019-05-07T18:13:36.051Z,11.87
2019-05-07T18:16:33.910Z,11.36
2019-05-07T18:19:03.387Z,10.98
2019-05-07T18:21:32.962Z,10.55
2019-05-07T18:24:13.320Z,10.26
2019-05-07T18:26:33.976Z,9.98
2019-05-07T18:29:03.387Z,9.70
2019-05-07T18:31:51.798Z,9.39
2019-05-07T18:34:21.329Z,9.05
2019-05-07T18:36:52.909Z,8.69
2019-05-07T18:39:22.028Z,8.41
2019-05-07T18:41:52.310Z,8.12
2019-05-07T18:44:22.478Z,7.87
2019-05-07T18:46:52.857Z,7.63
2019-05-07T18:49:22.795Z,7.41
2019-05-07T18:51:52.335Z,7.24
2019-05-07T18:54:31.245Z,7.04
2019-05-07T18:57:02.166Z,6.85
2019-05-07T18:59:33.422Z,6.61
2019-05-07T19:02:03.869Z,6.44
2019-05-07T19:04:35.802Z,6.26
2019-05-07T19:07:05.643Z,6.17
2019-05-07T19:09:35.711Z,6.03
2019-05-07T19:12:06.932Z,5.85
2019-05-07T19:14:37.163Z,5.66
2019-05-07T19:17:07.165Z,5.46
2019-05-07T19:19:37.481Z,5.31
2019-05-07T19:22:07.340Z,5.21
2019-05-07T19:24:45.170Z,5.16
2019-05-07T19:27:12.477Z,5.09
2019-05-07T19:29:45.684Z,4.99
2019-05-07T19:32:17.614Z,4.87
2019-05-07T19:34:47.518Z,4.77
2019-05-07T19:37:17.527Z,4.69
2019-05-07T19:39:49.467Z,4.64
2019-05-07T19:42:20.843Z,4.61
2019-05-07T19:44:52.038Z,4.59
2019-05-07T19:47:23.239Z,4.57
2019-05-07T19:49:55.640Z,4.56
2019-05-07T19:52:26.044Z,4.66
2019-05-07T19:55:01.701Z,4.77
2019-05-07T19:57:36.288Z,4.87
2019-05-07T20:00:07.380Z,4.88
2019-05-07T20:02:44.279Z,4.87
2019-05-07T20:05:16.345Z,4.86
2019-05-07T20:07:46.724Z,4.83
2019-05-07T20:10:22.190Z,4.82
2019-05-07T20:13:12.703Z,4.81
2019-05-07T20:15:46.664Z,4.78
2019-05-07T20:18:21.990Z,4.73
2019-05-07T20:20:53.510Z,4.67
2019-05-07T20:23:32.286Z,4.60
2019-05-07T20:26:08.963Z,4.52
2019-05-07T20:28:41.759Z,4.41
2019-05-07T20:31:12.842Z,4.33
2019-05-07T20:33:43.621Z,4.23
2019-05-07T20:36:18.560Z,4.13
2019-05-07T20:38:49.380Z,4.04
2019-05-07T20:41:19.505Z,3.98
2019-05-07T20:43:52.360Z,3.91
2019-05-07T20:46:22.766Z,3.84
2019-05-07T20:48:55.198Z,3.78
2019-05-07T20:51:29.557Z,3.75
2019-05-07T20:54:14.957Z,3.71
2019-05-07T20:56:53.840Z,3.68
2019-05-07T20:59:24.428Z,3.68
2019-05-07T21:01:54.280Z,3.71
2019-05-07T21:04:24.844Z,3.70
2019-05-07T21:06:54.675Z,3.72
2019-05-07T21:09:24.475Z,3.72
2019-05-07T21:11:54.246Z,3.73
2019-05-07T21:14:25.074Z,3.75
2019-05-07T21:16:54.562Z,3.75
2019-05-07T21:19:24.199Z,3.71
2019-05-07T21:21:53.799Z,3.74
2019-05-07T21:24:23.262Z,3.73
2019-05-07T21:26:53.177Z,3.70
2019-05-07T21:29:22.737Z,3.63
2019-05-07T21:31:52.484Z,3.52
2019-05-07T21:34:23.006Z,3.40
2019-05-07T21:36:52.667Z,3.30
2019-05-07T21:39:22.632Z,3.24
2019-05-07T21:41:52.123Z,3.17
2019-05-07T21:44:22.697Z,3.12
2019-05-07T21:46:52.763Z,3.06
2019-05-07T21:49:22.880Z,3.00
2019-05-07T21:51:54.546Z,2.95
2019-05-07T21:54:32.573Z,2.93
2019-05-07T21:57:22.152Z,2.89
2019-05-07T22:00:12.577Z,2.84
2019-05-07T22:02:41.978Z,2.81
2019-05-07T22:05:12.229Z,2.78
2019-05-07T22:07:41.682Z,2.76
2019-05-07T22:10:12.751Z,2.74
2019-05-07T22:12:42.316Z,2.77
2019-05-07T22:15:13.183Z,2.76
2019-05-07T22:17:44.439Z,2.74
2019-05-07T22:20:13.701Z,2.73
2019-05-07T22:22:43.649Z,2.77
2019-05-07T22:25:13.215Z,2.79
2019-05-07T22:27:42.917Z,2.81
2019-05-07T22:30:16.237Z,2.82
2019-05-07T22:32:52.782Z,2.82
2019-05-07T22:35:29.509Z,2.82
2019-05-07T22:37:58.955Z,2.82
2019-05-07T22:40:28.342Z,2.81
2019-05-07T22:42:57.759Z,2.79
2019-05-07T22:45:27.243Z,2.82
2019-05-07T22:47:56.659Z,2.86
2019-05-07T22:50:26.135Z,2.89
2019-05-07T22:52:55.601Z,2.90
2019-05-07T22:55:25.539Z,2.94
2019-05-07T22:58:06.169Z,3.01
2019-05-07T23:00:42.768Z,3.05
2019-05-07T23:03:13.356Z,3.01
2019-05-07T23:05:44.897Z,2.96
2019-05-07T23:08:14.089Z,2.89
2019-05-07T23:10:44.603Z,2.83
2019-05-07T23:13:14.234Z,2.72
2019-05-07T23:15:43.843Z,2.60
2019-05-07T23:18:13.386Z,2.53
2019-05-07T23:20:42.880Z,2.45
2019-05-07T23:23:14.189Z,2.41
2019-05-07T23:25:43.461Z,2.34
2019-05-07T23:28:12.950Z,2.31
2019-05-07T23:30:44.348Z,2.28
2019-05-07T23:33:13.768Z,2.27
2019-05-07T23:35:43.288Z,2.24
2019-05-07T23:38:15.733Z,2.22
2019-05-07T23:41:02.829Z,2.22
2019-05-07T23:43:32.932Z,2.25
2019-05-07T23:46:02.428Z,2.24
2019-05-07T23:48:32.242Z,2.20
2019-05-07T23:51:02.276Z,2.15
2019-05-07T23:53:31.960Z,2.15
2019-05-07T23:56:02.795Z,2.16
2019-05-07T23:58:32.766Z,2.19
